Latest Weather Observations for Adelaide (Kent Town)

IDS60901
From Wednesday 14 June 2017, the Adelaide (Kent Town) observation station will be replaced by the Adelaide (West Terrace / ngayirdapira) station as the source of the Adelaide capital city observations. See further details of this change.

Issued at 10:21 am CST Monday 24 July 2017 (issued every 10 minutes, with the page automatically refreshed every 10 minutes)

About weather observations | Map of Adelaide area stations | Latest observations for Adelaide area | Other Formats
Station Details ID: 023090 Name: KENT TOWN Lat: -34.92 Lon: 138.62 Height: 48.0 m
Data from the previous 72 hours. | See also: Recent months at Adelaide (Kent Town)
Date/Time
CST
Temp
°C
App
Temp
°C
Dew
Point
°C
Rel
Hum
%
Delta-T
°C
Wind Press
QNH
hPa
Press
MSL
hPa
Rain since
9am
mm
Dir  Spd
km/h
Gust
km/h
Spd
kts
Gust
kts
24/10:00am 13.8 11.3 8.2 69 2.8 NNE 11 17 6 9 1022.6 1022.6 0.0
24/09:30am 13.1 11.3 8.0 71 2.5 NNE 7 13 4 7 1022.6 1022.6 0.0
24/09:00am 11.8 9.1 7.4 74 2.1 NNE 11 19 6 10 1022.5 1022.5 5.8
24/08:30am 10.5 8.2 7.4 81 1.5 NE 9 17 5 9 1022.8 1022.8 5.8
24/08:00am 9.9 8.3 7.8 87 1.0 NNE 6 15 3 8 1022.6 1022.6 5.8
24/07:30am 9.2 8.3 7.7 90 0.7 NE 2 7 1 4 1022.4 1022.4 5.8
24/07:00am 9.7 7.9 8.0 89 0.8 NNE 7 11 4 6 1022.3 1022.3 5.8
24/06:30am 9.7 8.2 8.3 91 0.7 NNE 6 11 3 6 1022.1 1022.1 5.8
24/06:00am 9.3 9.0 8.5 95 0.4 CALM 0 0 0 0 1021.7 1021.7 5.8
24/05:30am 9.7 9.4 8.7 93 0.5 CALM 0 0 0 0 1021.4 1021.4 5.8
24/05:00am 10.0 9.3 8.6 91 0.7 NNE 2 9 1 5 1021.4 1021.4 5.8
24/04:30am 10.1 8.5 8.9 92 0.6 NNE 7 11 4 6 1021.3 1021.3 5.8
24/04:00am 9.9 8.6 9.1 95 0.4 NNE 6 7 3 4 1021.3 1021.3 5.8
24/03:30am 9.7 8.3 8.9 95 0.4 E 6 7 3 4 1021.2 1021.2 5.8
24/03:00am 9.8 8.4 8.8 93 0.5 NNE 6 9 3 5 1021.4 1021.4 5.8
24/02:30am 9.4 8.0 8.8 96 0.3 N 6 11 3 6 1021.6 1021.6 5.8
24/02:00am 8.8 7.1 8.4 97 0.2 NNE 7 11 4 6 1021.4 1021.4 5.8
24/01:30am 8.2 7.7 7.8 97 0.2 CALM 0 0 0 0 1021.4 1021.4 5.8
24/01:00am 8.4 7.9 8.0 97 0.2 CALM 0 0 0 0 1021.4 1021.4 5.8
24/12:30am 8.8 8.4 8.2 96 0.3 CALM 0 0 0 0 1021.4 1021.4 5.8
24/12:00am 9.1 8.8 8.7 97 0.2 CALM 0 0 0 0 1021.5 1021.5 5.8
 
Date/Time
CST
Temp
°C
App
Temp
°C
Dew
Point
°C
Rel
Hum
%
Delta-T
°C
Wind Press
QNH
hPa
Press
MSL
hPa
Rain since
9am
mm
Dir  Spd
km/h
Gust
km/h
Spd
kts
Gust
kts
23/11:30pm 9.7 9.5 9.1 96 0.3 CALM 0 0 0 0 1021.5 1021.5 5.8
23/11:00pm 10.1 10.0 9.5 96 0.3 CALM 0 0 0 0 1021.5 1021.5 5.8
23/10:30pm 10.4 9.6 9.8 96 0.3 NE 4 7 2 4 1021.4 1021.4 5.8
23/10:00pm 11.0 11.2 10.4 96 0.3 CALM 0 0 0 0 1021.2 1021.2 5.8
23/09:30pm 11.3 11.1 10.5 95 0.4 NE 2 7 1 4 1021.1 1021.1 5.8
23/09:00pm 10.8 10.5 10.2 96 0.3 SSW 2 6 1 3 1020.8 1020.8 5.8
23/08:30pm 10.9 9.9 10.3 96 0.3 ENE 6 7 3 4 1020.6 1020.6 5.8
23/08:00pm 11.3 11.4 10.3 94 0.5 CALM 0 0 0 0 1020.2 1020.2 5.8
23/07:30pm 12.0 11.9 10.8 92 0.6 SSE 2 7 1 4 1019.8 1019.9 5.8
23/07:00pm 12.6 11.6 10.9 89 0.9 SW 7 11 4 6 1019.6 1019.7 5.8
23/06:30pm 12.9 12.0 10.8 87 1.1 SW 6 11 3 6 1019.3 1019.4 5.8
23/06:00pm 12.9 12.2 11.4 91 0.8 SW 6 13 3 7 1019.0 1019.1 5.8
23/05:30pm 13.2 11.0 10.7 85 1.3 WSW 13 19 7 10 1018.8 1018.9 5.8
23/05:00pm 13.6 12.0 11.5 87 1.1 WSW 11 15 6 8 1018.8 1018.9 5.8
23/04:30pm 13.6 11.7 11.7 88 1.0 WSW 13 20 7 11 1018.7 1018.8 5.8
23/04:00pm 13.0 11.6 12.1 94 0.5 SW 11 19 6 10 1018.5 1018.6 5.8
23/03:30pm 14.6 11.8 11.2 80 1.8 SW 17 28 9 15 1018.1 1018.2 4.2
23/03:00pm 16.2 12.5 10.3 68 3.1 W 20 32 11 17 1017.9 1018.0 4.2
23/02:30pm 16.4 13.4 10.8 69 3.0 WNW 17 28 9 15 1017.9 1018.0 4.2
23/02:00pm 15.6 12.8 11.3 75 2.3 W 17 30 9 16 1017.9 1018.0 4.2
23/01:30pm 13.9 11.3 12.0 88 1.0 WSW 17 24 9 13 1018.1 1018.2 4.2
23/01:00pm 12.6 9.6 10.7 88 1.0 WSW 17 32 9 17 1018.2 1018.3 4.2
23/12:30pm 16.3 12.8 10.2 67 3.2 WNW 19 32 10 17 1018.4 1018.5 0.0
23/12:00pm 16.0 13.5 10.9 72 2.7 WNW 15 26 8 14 1018.8 1018.9 0.0
23/11:30am 15.3 12.7 10.8 74 2.4 WNW 15 24 8 13 1019.0 1019.1 0.0
23/11:00am 15.2 13.3 11.7 79 1.9 NW 13 19 7 10 1019.2 1019.3 0.0
23/10:30am 14.1 12.5 11.5 84 1.4 NW 11 22 6 12 1019.3 1019.4 0.0
23/10:00am 13.3 12.0 11.4 88 1.0 NNW 9 17 5 9 1019.0 1019.1 0.0
23/09:30am 12.0 10.6 10.8 92 0.6 NNW 9 17 5 9 1018.8 1018.9 0.0
23/09:00am 11.6 9.7 10.6 94 0.5 NNW 11 19 6 10 1018.5 1018.6 0.0
23/08:30am 11.2 10.0 10.4 95 0.4 N 7 15 4 8 1018.3 1018.4 0.0
23/08:00am 11.1 9.5 10.3 95 0.4 N 9 15 5 8 1018.0 1018.1 0.0
23/07:30am 11.1 9.8 10.1 94 0.5 N 7 11 4 6 1017.7 1017.8 0.0
23/07:00am 11.2 9.5 10.0 92 0.6 N 9 13 5 7 1017.5 1017.6 0.0
23/06:30am 11.4 10.2 10.2 92 0.6 NNE 7 13 4 7 1017.2 1017.3 0.0
23/06:00am 11.5 10.4 10.1 91 0.7 NW 6 11 3 6 1017.1 1017.2 0.0
23/05:30am 11.3 10.6 10.1 92 0.6 NE 4 9 2 5 1016.8 1016.9 0.0
23/05:00am 11.2 11.3 10.0 92 0.6 CALM 0 6 0 3 1016.6 1016.7 0.0
23/04:30am 10.8 9.7 9.8 93 0.5 NE 6 7 3 4 1016.5 1016.6 0.0
23/04:00am 10.0 9.7 8.8 92 0.6 CALM 0 0 0 0 1016.5 1016.6 0.0
23/03:30am 9.6 9.2 8.4 92 0.6 CALM 0 0 0 0 1016.5 1016.6 0.0
23/03:00am 9.5 9.0 8.0 90 0.7 CALM 0 6 0 3 1016.4 1016.5 0.0
23/02:30am 9.7 8.0 7.6 87 1.0 ENE 6 9 3 5 1016.3 1016.4 0.0
23/02:00am 10.1 8.4 7.6 84 1.2 N 6 7 3 4 1016.4 1016.5 0.0
23/01:30am 10.2 8.4 7.3 82 1.4 N 6 11 3 6 1016.5 1016.6 0.0
23/01:00am 10.7 8.8 6.9 77 1.8 NNE 6 9 3 5 1016.3 1016.4 0.0
23/12:30am 10.4 9.3 6.8 78 1.7 NNE 2 9 1 5 1016.4 1016.5 0.0
23/12:00am 10.3 9.1 6.5 77 1.8 ENE 2 7 1 4 1016.4 1016.5 0.0
 
Date/Time
CST
Temp
°C
App
Temp
°C
Dew
Point
°C
Rel
Hum
%
Delta-T
°C
Wind Press
QNH
hPa
Press
MSL
hPa
Rain since
9am
mm
Dir  Spd
km/h
Gust
km/h
Spd
kts
Gust
kts
22/11:30pm 10.6 9.3 6.1 74 2.1 ENE 2 6 1 3 1016.4 1016.5 0.0
22/11:00pm 11.1 8.9 5.5 68 2.6 NE 6 9 3 5 1016.4 1016.5 0.0
22/10:30pm 11.4 8.9 4.8 64 3.0 NNE 7 11 4 6 1016.3 1016.4 0.0
22/10:00pm 11.8 9.4 4.5 61 3.3 NE 6 9 3 5 1016.3 1016.4 0.0
22/09:30pm 11.7 9.3 4.1 59 3.4 NE 6 9 3 5 1016.1 1016.2 0.0
22/09:00pm 12.0 9.5 3.7 57 3.7 ENE 6 7 3 4 1015.8 1015.9 0.0
22/08:30pm 11.9 10.2 4.1 59 3.5 NE 2 9 1 5 1015.7 1015.8 0.0
22/08:00pm 12.3 10.8 4.9 60 3.4 NE 2 7 1 4 1015.4 1015.5 0.0
22/07:30pm 12.7 11.6 4.9 59 3.6 CALM 0 2 0 1 1015.2 1015.3 0.0
22/07:00pm 13.5 11.9 4.3 53 4.2 NNE 2 7 1 4 1015.0 1015.1 0.0
22/06:30pm 13.5 12.5 5.4 58 3.8 CALM 0 0 0 0 1014.9 1015.0 0.0
22/06:00pm 14.4 13.4 5.5 55 4.2 CALM 0 0 0 0 1014.6 1014.7 0.0
22/05:30pm 16.2 13.7 4.8 46 5.4 N 7 15 4 8 1014.4 1014.5 0.0
22/05:00pm 17.1 14.0 3.8 41 6.2 NNW 9 19 5 10 1014.3 1014.4 0.0
22/04:30pm 17.7 13.8 3.3 38 6.7 NNW 13 26 7 14 1014.3 1014.4 0.0
22/04:00pm 18.0 13.5 2.2 34 7.2 NNW 15 32 8 17 1014.2 1014.3 0.0
22/03:30pm 18.2 13.7 2.2 34 7.3 NNW 15 26 8 14 1014.3 1014.4 0.0
22/03:00pm 18.2 13.8 2.8 35 7.1 NW 15 26 8 14 1014.5 1014.6 0.0
22/02:30pm 18.1 13.8 3.3 37 6.9 NW 15 26 8 14 1014.8 1014.9 0.0
22/02:00pm 18.0 13.3 3.1 37 6.9 NW 17 30 9 16 1014.9 1015.0 0.0
22/01:30pm 18.4 13.4 3.7 37 6.9 NNW 19 32 10 17 1015.2 1015.3 0.0
22/01:00pm 18.3 12.9 2.3 34 7.3 NNW 20 33 11 18 1015.7 1015.8 0.0
22/12:30pm 18.0 12.5 1.8 33 7.3 NNW 20 39 11 21 1016.5 1016.6 0.0
22/12:00pm 18.1 13.2 2.3 34 7.2 NNW 17 37 9 20 1016.9 1017.0 0.0
22/11:30am 17.3 12.1 2.6 37 6.7 N 19 30 10 16 1017.6 1017.7 0.0
22/11:00am 16.0 10.2 2.1 39 6.2 N 22 33 12 18 1018.1 1018.2 0.0
22/10:30am 15.0 9.6 1.5 40 5.9 N 19 32 10 17 1018.3 1018.4 0.0
22/10:00am 14.3 9.7 1.7 42 5.5 N 15 30 8 16 1018.6 1018.7 0.0
22/09:30am 13.3 8.3 1.4 44 5.1 N 17 33 9 18 1018.8 1018.9 0.0
22/09:00am 12.9 8.2 1.1 44 5.0 N 15 30 8 16 1018.7 1018.8 0.0
22/08:30am 12.5 8.3 1.5 47 4.7 NNE 13 24 7 13 1018.8 1018.9 0.0
22/08:00am 12.1 7.8 1.2 47 4.6 NNE 13 22 7 12 1019.1 1019.2 0.0
22/07:30am 12.1 7.9 1.5 48 4.5 NNE 13 20 7 11 1019.2 1019.3 0.0
22/07:00am 12.3 8.0 1.2 46 4.7 NNE 13 24 7 13 1018.8 1018.9 0.0
22/06:30am 12.4 7.7 1.0 45 4.8 NNE 15 26 8 14 1018.4 1018.5 0.0
22/06:00am 12.1 8.2 1.2 47 4.6 NNE 11 19 6 10 1018.5 1018.6 0.0
22/05:30am 11.8 8.4 1.7 50 4.3 NE 9 17 5 9 1018.3 1018.4 0.0
22/05:00am 11.8 8.4 1.7 50 4.3 NE 9 15 5 8 1018.2 1018.3 0.0
22/04:30am 11.9 9.1 1.8 50 4.3 NE 6 13 3 7 1018.8 1018.9 0.0
22/04:00am 12.1 10.0 1.8 49 4.4 SSW 2 7 1 4 1019.0 1019.1 0.0
22/03:30am 12.5 9.6 1.5 47 4.7 NE 6 11 3 6 1019.1 1019.2 0.0
22/03:00am 12.4 9.5 1.3 46 4.7 NE 6 13 3 7 1019.1 1019.2 0.0
22/02:30am 12.4 9.5 1.6 47 4.6 N 6 11 3 6 1019.3 1019.4 0.0
22/02:00am 13.1 10.2 1.4 45 5.0 NE 6 11 3 6 1018.9 1019.0 0.0
22/01:30am 13.3 10.7 1.1 43 5.2 NE 4 9 2 5 1018.8 1018.9 0.0
22/01:00am 13.0 10.6 1.9 47 4.8 ENE 4 9 2 5 1018.6 1018.7 0.0
22/12:30am 13.6 10.5 1.5 43 5.2 NNE 7 13 4 7 1018.6 1018.7 0.0
22/12:00am 13.6 10.1 1.2 43 5.3 NE 9 17 5 9 1018.0 1018.1 0.0
 
Date/Time
CST
Temp
°C
App
Temp
°C
Dew
Point
°C
Rel
Hum
%
Delta-T
°C
Wind Press
QNH
hPa
Press
MSL
hPa
Rain since
9am
mm
Dir  Spd
km/h
Gust
km/h
Spd
kts
Gust
kts
21/11:30pm 13.8 10.3 1.5 43 5.3 NE 9 17 5 9 1017.9 1018.0 0.0
21/11:00pm 14.0 10.5 1.5 42 5.4 ENE 9 15 5 8 1018.2 1018.3 0.0
21/10:30pm 14.1 10.8 2.3 45 5.2 NE 9 15 5 8 1018.5 1018.6 0.0
21/10:00pm 14.3 11.0 2.3 44 5.3 NE 9 15 5 8 1018.8 1018.9 0.0
21/09:30pm 14.4 11.1 2.4 44 5.3 NE 9 13 5 7 1018.8 1018.9 0.0
21/09:00pm 14.3 11.1 3.2 47 5.0 NE 9 17 5 9 1019.1 1019.2 0.0
21/08:30pm 14.1 10.9 2.9 47 5.0 NE 9 15 5 8 1019.2 1019.3 0.0
21/08:00pm 13.1 11.0 3.8 53 4.2 NE 4 7 2 4 1019.2 1019.3 0.0
21/07:30pm 13.9 11.2 3.5 49 4.7 NE 7 11 4 6 1019.3 1019.4 0.0
21/07:00pm 13.5 11.1 4.3 53 4.2 NE 6 9 3 5 1019.2 1019.3 0.0
21/06:30pm 13.7 11.2 4.9 55 4.1 ENE 7 13 4 7 1019.1 1019.2 0.0
21/06:00pm 14.3 12.4 4.9 53 4.4 NE 4 7 2 4 1019.4 1019.5 0.0
21/05:30pm 15.7 12.7 4.0 45 5.4 NNE 9 15 5 8 1019.3 1019.4 0.0
21/05:00pm 16.3 12.5 3.8 43 5.8 NNE 13 30 7 16 1019.1 1019.2 0.0
21/04:30pm 16.9 12.2 3.2 40 6.3 N 17 26 9 14 1019.1 1019.2 0.0
21/04:00pm 17.3 13.0 3.2 39 6.5 N 15 26 8 14 1019.0 1019.1 0.0
21/03:30pm 17.5 12.7 2.6 37 6.8 N 17 24 9 13 1019.0 1019.1 0.0
21/03:00pm 17.6 12.8 2.7 37 6.8 N 17 28 9 15 1019.2 1019.3 0.0
21/02:30pm 17.6 12.9 3.1 38 6.7 N 17 28 9 15 1019.1 1019.2 0.0
21/02:00pm 17.2 12.5 3.0 38 6.5 NNW 17 28 9 15 1019.1 1019.2 0.0
21/01:30pm 17.3 12.4 1.9 35 6.9 NNW 17 28 9 15 1019.5 1019.6 0.0
21/01:00pm 17.3 12.5 2.6 37 6.7 N 17 26 9 14 1019.8 1019.9 0.0
21/12:30pm 16.6 12.1 2.1 37 6.5 NNW 15 28 8 15 1020.6 1020.6 0.0
21/12:00pm 16.0 11.3 3.0 41 5.9 N 17 28 9 15 1021.1 1021.1 0.0
21/11:30am 15.5 11.0 2.2 40 5.9 N 15 26 8 14 1021.6 1021.6 0.0
21/11:00am 15.2 10.6 1.7 40 5.9 N 15 24 8 13 1022.1 1022.1 0.0
21/10:30am 14.4 9.0 1.1 40 5.7 N 19 28 10 15 1022.3 1022.3 0.0

Latest Capital City Observations: Canberra | Sydney | Melbourne | Brisbane | Adelaide | Perth | Hobart | Darwin

Other Formats:

Comma delimited format used in spreadsheet applications
http://www.bom.gov.au/fwo/IDS60901/IDS60901.94675.axf

JavaScript Object Notation format (JSON) in row-major order
http://www.bom.gov.au/fwo/IDS60901/IDS60901.94675.json